Latest Weather Observations for Palmerville

IDQ60801

Issued at 11:42 pm EST Friday 16 November 2018 (issued every 10 minutes, with the page automatically refreshed every 10 minutes)

About weather observations | Map of weather stations | Latest weather observations for QLD | Other Formats
Station Details ID: 028004 Name: PALMERVILLE Lat: -16.00 Lon: 144.08 Height: 203.8 m
Data from the previous 72 hours. | See also: Recent months at Palmerville
Date/Time
EST
Temp
°C
App
Temp
°C
Dew
Point
°C
Rel
Hum
%
Delta-T
°C
Wind Press
QNH
hPa
Press
MSL
hPa
Rain since
9am
mm
Dir  Spd
km/h
Gust
km/h
Spd
kts
Gust
kts
16/11:30pm 22.1 22.4 13.5 58 5.0 ENE 4 7 2 4 1012.4 1011.0 0.0
16/11:00pm 23.1 23.1 12.4 51 6.2 E 4 7 2 4 1012.6 1011.2 0.0
16/10:30pm 24.3 24.9 11.9 45 7.1 CALM 0 6 0 3 1012.5 1011.1 0.0
16/10:00pm 26.1 25.9 12.9 44 7.8 NE 6 9 3 5 1012.3 1010.9 0.0
16/09:30pm 27.3 26.8 12.5 40 8.7 NNE 7 11 4 6 1012.0 1010.6 0.0
16/09:00pm 27.9 27.3 12.3 38 9.2 NNE 7 11 4 6 1011.7 1010.3 0.0
16/08:30pm 28.6 27.4 11.6 34 9.9 NE 9 15 5 8 1011.5 1010.1 0.0
16/08:00pm 29.5 28.2 11.1 32 10.7 NE 9 20 5 11 1011.0 1009.6 0.0
16/07:30pm 30.2 27.8 10.2 29 11.5 NE 13 24 7 13 1010.6 1009.2 0.0
16/07:00pm 31.2 28.1 8.8 25 12.6 ENE 15 22 8 12 1010.1 1008.7 0.0
16/06:30pm 32.1 29.6 9.6 25 12.9 NE 13 20 7 11 1009.6 1008.1 0.0
16/06:00pm 33.0 30.9 9.7 24 13.4 NE 11 17 6 9 1009.2 1007.7 0.0
16/05:30pm 34.1 31.7 10.0 23 14.0 ENE 13 20 7 11 1008.6 1007.1 0.0
16/05:00pm 35.4 32.9 9.7 21 15.0 ENE 13 22 7 12 1008.2 1006.7 0.0
16/04:30pm 35.9 32.9 9.4 20 15.4 ENE 15 22 8 12 1007.9 1006.4 0.0
16/04:00pm 37.5 35.1 11.5 21 15.7 ESE 15 26 8 14 1008.1 1006.6 0.0
16/03:30pm 35.7 36.5 12.6 25 14.0 CALM 0 6 0 3 1008.3 1006.8 0.0
16/03:00pm 35.0 33.2 12.0 25 13.8 E 13 22 7 12 1008.7 1007.2 0.0
16/02:30pm 36.5 35.5 13.3 25 14.3 SSE 11 20 6 11 1009.1 1007.6 0.0
16/02:00pm 34.9 34.4 13.7 28 13.1 NE 9 17 5 9 1009.7 1008.2 0.0
16/01:30pm 35.4 35.4 14.1 28 13.2 E 7 19 4 10 1010.2 1008.8 0.0
16/01:00pm 33.8 33.1 14.3 31 12.1 NE 11 17 6 9 1011.0 1009.6 0.0
16/12:30pm 33.9 34.3 15.4 33 11.6 NW 7 15 4 8 1012.0 1010.6 0.0
16/12:00pm 33.3 32.8 14.8 32 11.5 SE 11 20 6 11 1012.6 1011.2 0.0
16/11:30am 32.8 32.4 15.3 34 10.9 ENE 11 19 6 10 1013.3 1011.8 0.0
16/11:00am 32.0 32.3 15.9 38 10.1 E 9 19 5 10 1013.9 1012.4 0.0
16/10:30am 30.1 30.2 15.4 41 9.1 S 9 17 5 9 1014.5 1013.1 0.0
16/10:00am 29.3 29.8 16.5 46 8.0 NE 9 15 5 8 1015.0 1013.6 0.0
16/09:30am 30.2 30.6 16.2 42 8.8 E 9 15 5 8 1015.2 1013.8 0.0
16/09:00am 28.9 28.6 16.5 47 7.8 E 13 24 7 13 1015.3 1013.9 0.0
16/08:30am 27.8 27.6 16.7 50 7.0 ENE 13 20 7 11 1015.1 1013.7 0.0
16/08:00am 26.4 27.9 16.6 55 6.1 SSW 4 13 2 7 1015.1 1013.7 0.0
16/07:30am 25.6 26.5 16.7 58 5.5 S 7 11 4 6 1015.0 1013.6 0.0
16/07:00am 23.9 26.2 16.7 64 4.5 CALM 0 0 0 0 1014.7 1013.3 0.0
16/06:30am 22.1 24.3 16.6 71 3.4 CALM 0 0 0 0 1014.4 1013.0 0.0
16/06:00am 20.9 22.8 15.7 72 3.1 CALM 0 6 0 3 1014.2 1012.7 0.0
16/05:30am 21.2 21.8 15.3 69 3.5 WSW 6 7 3 4 1013.6 1012.1 0.0
16/05:00am 22.8 24.5 16.1 66 4.1 ENE 2 7 1 4 1012.8 1011.4 0.0
16/04:30am 23.5 24.3 16.3 64 4.4 NE 7 17 4 9 1012.5 1011.1 0.0
16/04:00am 23.4 23.6 15.7 62 4.7 NE 9 15 5 8 1012.2 1010.8 0.0
16/03:30am 24.2 23.6 15.7 59 5.2 NE 13 26 7 14 1012.2 1010.8 0.0
16/03:00am 23.8 24.2 16.3 63 4.6 ENE 9 15 5 8 1012.2 1010.8 0.0
16/02:30am 21.6 23.1 14.7 65 4.1 CALM 0 0 0 0 1012.3 1010.9 0.0
16/02:00am 22.5 24.3 15.4 64 4.3 CALM 0 7 0 4 1012.5 1011.1 0.0
16/01:30am 23.9 25.4 15.7 60 5.0 ENE 2 7 1 4 1012.7 1011.3 0.0
16/01:00am 24.3 25.0 15.5 58 5.4 NE 6 11 3 6 1013.2 1011.7 0.0
16/12:30am 24.8 24.8 15.1 54 5.9 NE 9 17 5 9 1013.5 1012.0 0.0
16/12:00am 25.1 24.6 14.9 53 6.2 ENE 11 17 6 9 1013.7 1012.2 0.0
 
Date/Time
EST
Temp
°C
App
Temp
°C
Dew
Point
°C
Rel
Hum
%
Delta-T
°C
Wind Press
QNH
hPa
Press
MSL
hPa
Rain since
9am
mm
Dir  Spd
km/h
Gust
km/h
Spd
kts
Gust
kts
15/11:30pm 25.4 24.9 13.9 49 6.8 ENE 9 17 5 9 1014.0 1012.5 0.0
15/11:00pm 26.1 25.2 13.6 46 7.4 ENE 11 19 6 10 1014.1 1012.6 0.0
15/10:30pm 26.5 25.9 13.6 45 7.7 ENE 9 17 5 9 1014.0 1012.5 0.0
15/10:00pm 27.0 26.6 14.1 45 7.8 ENE 9 20 5 11 1013.6 1012.1 0.0
15/09:30pm 27.4 26.5 13.7 43 8.2 ENE 11 20 6 11 1013.4 1011.9 0.0
15/09:00pm 27.7 27.3 12.9 40 8.8 ENE 7 13 4 7 1013.1 1011.6 0.0
15/08:30pm 28.5 27.0 12.0 36 9.7 ENE 11 15 6 8 1012.8 1011.4 0.0
15/08:00pm 29.3 27.4 11.8 34 10.2 NE 13 20 7 11 1012.3 1010.9 0.0
15/07:30pm 30.1 28.5 11.6 32 10.8 NE 11 17 6 9 1011.6 1010.2 0.0
15/07:00pm 31.0 29.3 12.4 32 11.1 NE 13 24 7 13 1011.2 1009.8 0.0
15/06:30pm 31.7 30.2 13.0 32 11.3 NE 13 26 7 14 1010.8 1009.4 0.0
15/06:00pm 32.4 30.1 13.1 31 11.7 ENE 17 26 9 14 1010.3 1008.9 0.0
15/05:30pm 33.5 31.4 13.5 29 12.2 NE 17 28 9 15 1009.8 1008.3 0.0
15/05:00pm 35.4 33.7 13.5 26 13.5 NE 15 22 8 12 1009.5 1008.0 0.0
15/04:30pm 35.8 35.5 12.7 25 14.1 WNW 6 11 3 6 1009.3 1007.8 0.0
15/04:00pm 35.6 35.2 13.1 25 13.8 NNE 7 19 4 10 1009.4 1007.9 0.0
15/03:30pm 34.7 34.1 12.4 26 13.5 NNE 7 15 4 8 1009.7 1008.2 0.0
15/03:00pm 35.0 33.9 12.0 25 13.8 WNW 9 17 5 9 1010.0 1008.6 0.0
15/02:30pm 35.4 34.8 13.5 26 13.5 NNE 9 20 5 11 1010.4 1009.0 0.0
15/02:00pm 35.9 35.3 14.5 27 13.4 ENE 11 19 6 10 1010.8 1009.4 0.0
15/01:30pm 34.6 33.4 12.9 27 13.2 NW 11 22 6 12 1011.2 1009.8 0.0
15/01:00pm 34.7 34.5 13.5 28 13.0 SW 7 19 4 10 1011.8 1010.4 0.0
15/12:30pm 34.2 33.4 14.1 29 12.4 NNE 11 22 6 12 1012.3 1010.9 0.0
15/12:00pm 33.1 33.6 15.6 35 11.0 S 7 17 4 9 1013.1 1011.6 0.0
15/11:30am 33.5 33.0 15.0 32 11.5 E 11 17 6 9 1013.7 1012.2 0.0
15/11:00am 31.7 31.2 14.8 36 10.4 E 11 22 6 12 1014.4 1013.0 0.0
15/10:30am 31.3 31.9 15.7 39 9.8 E 7 20 4 11 1015.0 1013.6 0.0
15/10:00am 31.1 31.4 15.9 40 9.5 E 9 20 5 11 1015.4 1014.0 0.0
15/09:30am 30.2 30.0 16.6 44 8.6 ESE 13 20 7 11 1015.6 1014.2 0.0
15/09:00am 29.2 29.8 16.7 46 7.9 E 9 17 5 9 1015.6 1014.2 0.0
15/08:30am 27.8 27.5 16.4 50 7.1 E 13 20 7 11 1015.6 1014.2 0.0
15/08:00am 26.9 26.9 17.1 55 6.2 E 13 20 7 11 1015.4 1014.0 0.0
15/07:30am 25.8 26.6 17.4 59 5.3 SE 9 15 5 8 1015.3 1013.9 0.0
15/07:00am 23.3 25.5 16.6 66 4.1 CALM 0 0 0 0 1015.0 1013.6 0.0
15/06:30am 21.2 23.4 16.6 75 2.8 CALM 0 6 0 3 1014.7 1013.3 0.0
15/06:00am 19.5 21.3 15.4 77 2.4 CALM 0 0 0 0 1014.3 1012.8 0.0
15/05:30am 19.7 21.5 15.6 77 2.5 CALM 0 0 0 0 1013.7 1012.2 0.0
15/05:00am 20.1 21.8 15.3 74 2.9 CALM 0 0 0 0 1013.6 1012.1 0.0
15/04:30am 20.5 22.3 15.5 73 3.0 CALM 0 0 0 0 1013.3 1011.8 0.0
15/04:00am 20.8 22.6 15.4 71 3.2 CALM 0 0 0 0 1013.1 1011.6 0.0
15/03:30am 21.4 23.1 15.3 68 3.7 CALM 0 0 0 0 1012.5 1011.1 0.0
15/03:00am 22.5 24.0 15.6 65 4.2 NE 2 7 1 4 1012.1 1010.7 0.0
15/02:30am 23.1 23.9 15.9 64 4.4 NNE 6 9 3 5 1011.8 1010.4 0.0
15/02:00am 23.8 24.4 15.8 61 4.9 NE 7 13 4 7 1011.8 1010.4 0.0
15/01:30am 24.0 24.6 15.8 60 5.0 NNE 7 11 4 6 1012.0 1010.6 0.0
15/01:00am 24.3 25.2 16.0 60 5.1 NE 6 13 3 7 1012.0 1010.6 0.0
15/12:30am 24.5 24.9 16.2 60 5.1 NE 9 15 5 8 1012.3 1010.9 0.0
15/12:00am 24.9 24.8 16.1 58 5.4 NNE 11 19 6 10 1012.3 1010.9 0.0
 
Date/Time
EST
Temp
°C
App
Temp
°C
Dew
Point
°C
Rel
Hum
%
Delta-T
°C
Wind Press
QNH
hPa
Press
MSL
hPa
Rain since
9am
mm
Dir  Spd
km/h
Gust
km/h
Spd
kts
Gust
kts
14/11:30pm 25.0 25.4 15.3 55 5.9 NE 7 13 4 7 1012.6 1011.2 0.0
14/11:00pm 25.5 25.1 15.2 53 6.3 NE 11 19 6 10 1012.7 1011.3 0.0
14/10:30pm 25.9 25.4 15.0 51 6.6 NNE 11 19 6 10 1012.6 1011.2 0.0
14/10:00pm 26.3 25.8 15.0 49 6.9 NE 11 20 6 11 1012.4 1011.0 0.0
14/09:30pm 27.1 26.6 14.8 47 7.5 ENE 11 20 6 11 1012.2 1010.8 0.0
14/09:00pm 28.1 27.8 15.4 46 7.8 NE 11 20 6 11 1011.9 1010.5 0.0
14/08:30pm 28.9 27.0 14.3 40 8.9 ENE 17 26 9 14 1011.5 1010.1 0.0
14/08:00pm 29.5 29.1 14.1 39 9.4 ENE 9 20 5 11 1011.2 1009.8 0.0
14/07:30pm 30.5 28.8 14.6 38 9.8 NE 17 28 9 15 1010.6 1009.2 0.0
14/07:00pm 31.8 30.2 14.0 34 10.9 NE 15 22 8 12 1010.3 1008.9 0.0
14/06:30pm 32.5 30.8 13.7 32 11.5 NE 15 24 8 13 1009.9 1008.4 0.0
14/06:00pm 33.7 31.5 13.2 29 12.5 NNE 17 26 9 14 1009.5 1008.0 0.0
14/05:30pm 35.4 34.6 13.0 26 13.7 E 9 19 5 10 1008.8 1007.3 0.0
14/05:00pm 37.0 36.0 12.4 23 15.0 E 9 17 5 9 1008.4 1006.9 0.0
14/04:30pm 37.1 36.5 11.8 22 15.3 NW 6 9 3 5 1008.3 1006.8 0.0
14/04:00pm 35.4 34.8 11.7 23 14.2 NE 6 11 3 6 1008.4 1006.9 0.0
14/03:30pm 35.2 34.6 12.2 25 13.9 ENE 7 15 4 8 1008.5 1007.0 0.0
14/03:00pm 37.1 36.6 12.5 23 15.0 ESE 7 17 4 9 1008.7 1007.2 0.0
14/02:30pm 37.2 36.2 13.3 24 14.7 SSE 11 26 6 14 1009.0 1007.5 0.0
14/02:00pm 36.2 35.4 13.0 24 14.2 ENE 9 17 5 9 1009.5 1008.0 0.0
14/01:30pm 34.4 33.5 13.8 29 12.7 NNE 11 19 6 10 1009.9 1008.4 0.0
14/01:00pm 34.4 34.1 13.3 28 12.9 SSE 7 15 4 8 1010.6 1009.2 0.0
14/12:30pm 34.5 34.2 13.3 27 13.0 ENE 7 17 4 9 1011.2 1009.8 0.0
14/12:00pm 33.6 32.5 13.1 29 12.5 SE 11 24 6 13 1011.8 1010.4 0.0
14/11:30am 33.6 32.8 14.1 30 12.0 E 11 20 6 11 1012.3 1010.9 0.0
14/11:00am 32.6 31.5 14.2 32 11.3 E 13 22 7 12 1013.1 1011.6 0.0
14/10:30am 29.5 29.1 14.1 39 9.3 NNE 9 19 5 10 1013.7 1012.2 0.0
14/10:00am 29.3 28.3 14.7 41 8.9 ESE 13 19 7 10 1014.2 1012.7 0.0
14/09:30am 29.1 29.1 15.2 42 8.6 ENE 9 17 5 9 1014.2 1012.7 0.0
14/09:00am 26.9 27.6 16.2 52 6.6 SW 7 9 4 5 1014.4 1013.0 0.0
14/08:30am 26.4 27.3 16.6 55 6.1 NNE 7 11 4 6 1014.7 1013.3 0.0
14/08:00am 25.6 26.7 17.0 59 5.4 SW 7 13 4 7 1015.0 1013.6 0.0
14/07:30am 23.7 25.9 16.5 64 4.4 CALM 0 2 0 1 1014.7 1013.3 0.0
14/07:00am 22.0 24.1 16.3 70 3.5 CALM 0 0 0 0 1014.5 1013.1 0.0
14/06:30am 19.5 21.5 16.0 80 2.1 CALM 0 0 0 0 1013.9 1012.4 0.0
14/06:00am 18.5 20.3 15.6 83 1.7 CALM 0 0 0 0 1013.7 1012.2 0.0
14/05:30am 18.9 20.7 15.6 81 2.0 CALM 0 0 0 0 1013.2 1011.7 0.0
14/05:00am 19.2 21.0 15.5 79 2.2 CALM 0 0 0 0 1012.9 1011.5 0.0
14/04:30am 20.0 21.8 15.6 76 2.6 CALM 0 0 0 0 1012.5 1011.1 0.0
14/04:00am 20.2 21.2 15.4 74 2.9 S 4 9 2 5 1012.3 1010.9 0.0
14/03:30am 21.2 22.9 16.2 73 3.0 S 2 6 1 3 1011.8 1010.4 0.0
14/03:00am 22.3 23.9 16.8 71 3.4 NE 4 9 2 5 1011.4 1010.0 0.0
14/02:30am 22.4 23.8 16.4 69 3.7 NNE 4 9 2 5 1011.3 1009.9 0.0
14/02:00am 22.5 23.6 16.5 69 3.7 NNE 6 7 3 4 1011.4 1010.0 0.0
14/01:30am 21.8 23.6 15.6 68 3.7 CALM 0 0 0 0 1011.6 1010.2 0.0
14/01:00am 22.4 24.2 15.5 65 4.2 CALM 0 0 0 0 1011.9 1010.5 0.0
14/12:30am 23.2 24.6 15.5 62 4.7 SE 2 7 1 4 1012.1 1010.7 0.0
14/12:00am 24.0 24.9 16.0 61 4.9 NE 6 13 3 7 1011.8 1010.4 0.0

Other Formats:

Comma delimited format used in spreadsheet applications
http://www.bom.gov.au/fwo/IDQ60801/IDQ60801.94276.axf

JavaScript Object Notation format (JSON) in row-major order
http://www.bom.gov.au/fwo/IDQ60801/IDQ60801.94276.json